Time;durP1;ratioP1;P1;durP2;ratioP2;P2;SDS_P1;SDS_P2;PMS_P1;PMS_P2;Temp;Humidity;BMP_temperature;BMP_pressure;BME280_temperature;BME280_humidity;BME280_pressure;Samples;Min_cycle;Max_cycle;Signal;HPM_P1;HPM_P2
2021/10/14 00:01:12;;;;;;;4.43;1.38;;;;;;;;;;5030643;28;20052;-66
2021/10/14 00:03:41;;;;;;;1.63;1.00;;;;;;;;;;5029878;28;20083;-66
2021/10/14 00:06:07;;;;;;;2.60;1.20;;;;;;;;;;5030068;28;20080;-66
2021/10/14 00:08:32;;;;;;;4.70;1.30;;;;;;;;;;5030446;28;20100;-66
2021/10/14 00:10:58;;;;;;;2.95;1.20;;;;;;;;;;5030378;28;20033;-66
2021/10/14 00:13:23;;;;;;;2.92;1.35;;;;;;;;;;5028826;28;20396;-66
2021/10/14 00:15:49;;;;;;;2.30;1.13;;;;;;;;;;5030532;28;20025;-66
2021/10/14 00:18:14;;;;;;;2.45;1.20;;;;;;;;;;5029984;28;20463;-67
2021/10/14 00:20:40;;;;;;;1.80;1.13;;;;;;;;;;5030552;28;20033;-67
2021/10/14 00:23:05;;;;;;;2.58;1.48;;;;;;;;;;5029535;28;20528;-66
2021/10/14 00:25:31;;;;;;;3.42;1.10;;;;;;;;;;5030282;28;20033;-66
2021/10/14 00:27:57;;;;;;;2.50;1.40;;;;;;;;;;5030445;28;20084;-66
2021/10/14 00:30:22;;;;;;;1.80;1.00;;;;;;;;;;5029671;28;20108;-66
2021/10/14 00:32:48;;;;;;;3.75;1.15;;;;;;;;;;5029252;28;20033;-66
2021/10/14 00:35:13;;;;;;;1.88;1.20;;;;;;;;;;5034581;28;20029;-66
2021/10/14 00:37:38;;;;;;;1.60;0.90;;;;;;;;;;5023388;28;20412;-66
2021/10/14 00:40:05;;;;;;;1.98;1.30;;;;;;;;;;5029714;28;20025;-66
2021/10/14 00:42:31;;;;;;;1.08;0.85;;;;;;;;;;5029697;28;20100;-66
2021/10/14 00:44:57;;;;;;;2.42;1.35;;;;;;;;;;5029496;28;20049;-67
2021/10/14 00:47:25;;;;;;;2.22;1.20;;;;;;;;;;5029366;28;20027;-67
2021/10/14 00:49:51;;;;;;;4.13;1.38;;;;;;;;;;5021946;28;20030;-66
2021/10/14 00:52:18;;;;;;;3.03;1.30;;;;;;;;;;5024620;28;20523;-66
2021/10/14 00:54:44;;;;;;;2.38;1.27;;;;;;;;;;5029056;28;20022;-66
2021/10/14 00:57:11;;;;;;;1.48;1.05;;;;;;;;;;5033229;28;20381;-66
2021/10/14 00:59:39;;;;;;;2.05;1.20;;;;;;;;;;5027216;28;20056;-67
2021/10/14 01:02:05;;;;;;;2.95;1.30;;;;;;;;;;5025513;28;20032;-70
2021/10/14 01:04:31;;;;;;;2.30;1.20;;;;;;;;;;5022767;28;20068;-67
2021/10/14 01:06:57;;;;;;;2.97;1.35;;;;;;;;;;5028538;28;20493;-66
2021/10/14 01:09:23;;;;;;;2.58;1.33;;;;;;;;;;5029078;28;20037;-66
2021/10/14 01:11:48;;;;;;;2.25;1.10;;;;;;;;;;5025348;28;20095;-66
2021/10/14 01:14:13;;;;;;;2.28;1.10;;;;;;;;;;5029938;28;20029;-66
2021/10/14 01:16:44;;;;;;;3.72;1.05;;;;;;;;;;5024230;28;20326;-66
2021/10/14 01:19:11;;;;;;;4.45;1.50;;;;;;;;;;5023116;28;20041;-66
2021/10/14 01:21:37;;;;;;;4.13;1.10;;;;;;;;;;5027924;28;20038;-66
2021/10/14 01:24:03;;;;;;;1.80;1.02;;;;;;;;;;5029284;28;20029;-66
2021/10/14 01:26:29;;;;;;;2.00;1.23;;;;;;;;;;5028919;28;20036;-66
2021/10/14 01:28:55;;;;;;;2.55;1.20;;;;;;;;;;5029360;28;20029;-66
2021/10/14 01:31:25;;;;;;;2.17;1.13;;;;;;;;;;5028519;28;20075;-66
2021/10/14 01:33:51;;;;;;;1.92;0.90;;;;;;;;;;5034222;28;20037;-66
2021/10/14 01:36:17;;;;;;;2.60;1.20;;;;;;;;;;5028968;28;20048;-66
2021/10/14 01:38:43;;;;;;;2.60;1.30;;;;;;;;;;5024382;28;20064;-66
2021/10/14 01:41:10;;;;;;;1.75;1.17;;;;;;;;;;5026824;28;20021;-68
2021/10/14 01:43:36;;;;;;;2.53;1.42;;;;;;;;;;5031057;28;20056;-66
2021/10/14 01:46:02;;;;;;;2.08;1.20;;;;;;;;;;5028393;28;20034;-66
2021/10/14 01:48:28;;;;;;;2.33;1.33;;;;;;;;;;5030001;28;20025;-66
2021/10/14 01:50:58;;;;;;;1.88;1.10;;;;;;;;;;5015552;28;20327;-66
2021/10/14 01:53:23;;;;;;;3.47;1.17;;;;;;;;;;5028378;28;20489;-66
2021/10/14 01:55:49;;;;;;;1.77;0.88;;;;;;;;;;5027118;28;20029;-66
2021/10/14 01:58:15;;;;;;;1.42;1.05;;;;;;;;;;5031855;28;20533;-66
2021/10/14 02:00:40;;;;;;;2.33;1.23;;;;;;;;;;5033591;28;20056;-66
2021/10/14 02:03:07;;;;;;;1.52;0.90;;;;;;;;;;5031434;28;20143;-66
2021/10/14 02:05:32;;;;;;;3.13;1.10;;;;;;;;;;5032161;28;20025;-66
2021/10/14 02:07:58;;;;;;;2.55;1.08;;;;;;;;;;5025518;28;20026;-66
2021/10/14 02:10:24;;;;;;;2.28;1.08;;;;;;;;;;5023857;28;20112;-64
2021/10/14 02:12:53;;;;;;;2.95;1.10;;;;;;;;;;5027090;28;20064;-64
2021/10/14 02:15:18;;;;;;;5.40;1.42;;;;;;;;;;5029635;28;20500;-65
2021/10/14 02:17:44;;;;;;;1.77;1.23;;;;;;;;;;5029471;28;20021;-65
2021/10/14 02:20:10;;;;;;;3.17;1.30;;;;;;;;;;5024950;28;20022;-67
2021/10/14 02:22:35;;;;;;;2.20;1.17;;;;;;;;;;5030092;28;20083;-64
2021/10/14 02:25:00;;;;;;;1.13;0.90;;;;;;;;;;5031686;28;20033;-64
2021/10/14 02:27:26;;;;;;;2.67;0.90;;;;;;;;;;5031010;28;20068;-64
2021/10/14 02:29:52;;;;;;;2.67;1.27;;;;;;;;;;5031757;28;20029;-64
2021/10/14 02:32:17;;;;;;;1.20;0.90;;;;;;;;;;5028628;28;20045;-65
2021/10/14 02:34:43;;;;;;;2.17;1.00;;;;;;;;;;5027951;28;20363;-64
2021/10/14 02:37:08;;;;;;;3.10;0.90;;;;;;;;;;5024995;28;20037;-64
2021/10/14 02:39:34;;;;;;;0.95;0.70;;;;;;;;;;5031582;28;20057;-64
2021/10/14 02:41:59;;;;;;;1.20;0.80;;;;;;;;;;5030921;28;20108;-64
2021/10/14 02:44:25;;;;;;;1.52;0.80;;;;;;;;;;5030571;28;20025;-65
2021/10/14 02:46:50;;;;;;;2.28;0.85;;;;;;;;;;5020908;28;20040;-64
2021/10/14 02:49:16;;;;;;;1.83;0.65;;;;;;;;;;5013684;28;20474;-64
2021/10/14 02:51:41;;;;;;;4.03;1.00;;;;;;;;;;5029865;28;20064;-65
2021/10/14 02:54:07;;;;;;;2.63;0.80;;;;;;;;;;5031342;28;20041;-65
2021/10/14 02:56:32;;;;;;;1.08;0.65;;;;;;;;;;5035462;28;20025;-65
2021/10/14 02:58:58;;;;;;;1.90;0.90;;;;;;;;;;5032182;28;20560;-65
2021/10/14 03:01:23;;;;;;;0.80;0.60;;;;;;;;;;5028646;28;20152;-64
2021/10/14 03:03:49;;;;;;;1.15;0.80;;;;;;;;;;5032176;28;20087;-65
2021/10/14 03:06:15;;;;;;;1.30;0.80;;;;;;;;;;5024086;28;20053;-64
2021/10/14 03:08:41;;;;;;;1.23;1.00;;;;;;;;;;5031833;28;20412;-64
2021/10/14 03:11:06;;;;;;;1.60;0.90;;;;;;;;;;5019920;28;20098;-65
2021/10/14 03:13:32;;;;;;;1.85;0.93;;;;;;;;;;5023237;28;20030;-64
2021/10/14 03:15:57;;;;;;;2.22;1.13;;;;;;;;;;5014828;28;20044;-65
2021/10/14 03:18:23;;;;;;;1.38;0.80;;;;;;;;;;5022698;28;20051;-65
2021/10/14 03:20:48;;;;;;;3.15;0.90;;;;;;;;;;5021770;28;20026;-67
2021/10/14 03:23:14;;;;;;;2.08;0.90;;;;;;;;;;5015121;28;20040;-65
2021/10/14 03:25:39;;;;;;;2.22;0.85;;;;;;;;;;5023737;28;20406;-64
2021/10/14 03:28:05;;;;;;;1.23;0.70;;;;;;;;;;5029861;28;20037;-65
2021/10/14 03:30:31;;;;;;;1.67;0.90;;;;;;;;;;5027447;28;20439;-65
2021/10/14 03:32:56;;;;;;;1.23;0.82;;;;;;;;;;5032737;28;20052;-65
2021/10/14 03:35:22;;;;;;;1.88;1.02;;;;;;;;;;5025493;28;20029;-65
2021/10/14 03:37:47;;;;;;;2.08;1.02;;;;;;;;;;5027143;28;20037;-65
2021/10/14 03:40:14;;;;;;;2.47;0.85;;;;;;;;;;5023272;28;20438;-65
2021/10/14 03:42:39;;;;;;;1.42;0.90;;;;;;;;;;5011814;28;20029;-64
2021/10/14 03:45:06;;;;;;;1.50;0.88;;;;;;;;;;5022621;28;20017;-65
2021/10/14 03:47:31;;;;;;;1.35;0.75;;;;;;;;;;5024080;28;20049;-65
2021/10/14 03:49:56;;;;;;;1.63;1.00;;;;;;;;;;5029068;28;21419;-65
2021/10/14 03:52:23;;;;;;;1.52;0.82;;;;;;;;;;5031288;28;20029;-65
2021/10/14 03:54:48;;;;;;;2.63;1.20;;;;;;;;;;5022815;28;20052;-65
2021/10/14 03:57:13;;;;;;;1.38;0.90;;;;;;;;;;5029709;28;20462;-65
2021/10/14 03:59:39;;;;;;;2.08;1.30;;;;;;;;;;5025648;28;20053;-65
2021/10/14 04:02:05;;;;;;;3.80;1.23;;;;;;;;;;5020099;28;20032;-65
2021/10/14 04:04:30;;;;;;;1.33;0.75;;;;;;;;;;5028645;28;20034;-65
2021/10/14 04:06:56;;;;;;;1.27;0.77;;;;;;;;;;5017784;28;20365;-65
2021/10/14 04:09:21;;;;;;;1.75;0.90;;;;;;;;;;5029021;28;20017;-65
2021/10/14 04:11:46;;;;;;;0.68;0.68;;;;;;;;;;5029495;28;20048;-65
2021/10/14 04:14:12;;;;;;;1.27;0.70;;;;;;;;;;5014534;28;20105;-64
2021/10/14 04:16:38;;;;;;;2.20;1.05;;;;;;;;;;5018297;28;20413;-65
2021/10/14 04:19:03;;;;;;;1.77;1.05;;;;;;;;;;5027524;28;20025;-64
2021/10/14 04:21:29;;;;;;;2.47;0.95;;;;;;;;;;5024119;28;20079;-64
2021/10/14 04:23:56;;;;;;;2.05;0.93;;;;;;;;;;5017368;28;20083;-64
2021/10/14 04:26:21;;;;;;;1.58;0.88;;;;;;;;;;5030150;28;20086;-64
2021/10/14 04:28:47;;;;;;;1.38;0.80;;;;;;;;;;5027854;28;20038;-64
2021/10/14 04:31:14;;;;;;;3.72;1.00;;;;;;;;;;5023257;28;20147;-64
2021/10/14 04:33:39;;;;;;;1.08;0.77;;;;;;;;;;5037771;28;20479;-64
2021/10/14 04:36:05;;;;;;;2.15;0.80;;;;;;;;;;5025527;28;20102;-64
2021/10/14 04:38:31;;;;;;;3.05;0.80;;;;;;;;;;5030690;28;20025;-65
2021/10/14 04:40:57;;;;;;;1.25;0.80;;;;;;;;;;5018802;28;20030;-65
2021/10/14 04:43:23;;;;;;;1.73;1.00;;;;;;;;;;5024357;28;20357;-65
2021/10/14 04:45:52;;;;;;;1.65;1.00;;;;;;;;;;5024160;28;20043;-64
2021/10/14 04:48:18;;;;;;;1.73;0.90;;;;;;;;;;5025790;28;20033;-65
2021/10/14 04:50:44;;;;;;;1.80;0.80;;;;;;;;;;5018687;28;20026;-64
2021/10/14 04:53:09;;;;;;;4.53;0.70;;;;;;;;;;5028305;28;20030;-64
2021/10/14 04:55:35;;;;;;;1.02;0.80;;;;;;;;;;5022707;28;20104;-65
2021/10/14 04:58:01;;;;;;;1.65;1.08;;;;;;;;;;5020829;28;20040;-65
2021/10/14 05:00:27;;;;;;;2.38;0.93;;;;;;;;;;5022086;28;20092;-65
2021/10/14 05:02:52;;;;;;;1.58;0.98;;;;;;;;;;5025691;28;20381;-64
2021/10/14 05:05:18;;;;;;;1.80;1.00;;;;;;;;;;5025663;28;20029;-65
2021/10/14 05:07:43;;;;;;;1.65;0.88;;;;;;;;;;5030366;28;20049;-65
2021/10/14 05:10:09;;;;;;;2.35;1.17;;;;;;;;;;5025166;28;20072;-65
2021/10/14 05:12:35;;;;;;;1.45;0.93;;;;;;;;;;5025110;28;20056;-65
2021/10/14 05:15:05;;;;;;;1.38;0.82;;;;;;;;;;5028520;28;20112;-65
2021/10/14 05:17:30;;;;;;;1.52;0.80;;;;;;;;;;5030582;28;20024;-65
2021/10/14 05:19:56;;;;;;;3.20;1.08;;;;;;;;;;5021193;28;20378;-65
2021/10/14 05:22:21;;;;;;;2.08;0.90;;;;;;;;;;5020552;28;20021;-67
2021/10/14 05:24:47;;;;;;;1.90;0.80;;;;;;;;;;5024143;28;20101;-65
2021/10/14 05:27:12;;;;;;;1.30;0.73;;;;;;;;;;5024167;28;20453;-66
2021/10/14 05:29:37;;;;;;;1.83;0.80;;;;;;;;;;5026972;28;20029;-66
2021/10/14 05:32:03;;;;;;;1.85;1.20;;;;;;;;;;5014553;28;20513;-65
2021/10/14 05:34:29;;;;;;;2.00;1.02;;;;;;;;;;5035300;28;20022;-66
2021/10/14 05:36:54;;;;;;;1.58;0.90;;;;;;;;;;5024575;28;20026;-65
2021/10/14 05:39:20;;;;;;;1.92;0.90;;;;;;;;;;5030548;28;20072;-65
2021/10/14 05:41:45;;;;;;;2.85;1.10;;;;;;;;;;5018451;28;20025;-65
2021/10/14 05:44:10;;;;;;;2.92;1.02;;;;;;;;;;5014297;28;20029;-66
2021/10/14 05:46:36;;;;;;;2.67;0.85;;;;;;;;;;5020633;28;20021;-65
2021/10/14 05:49:01;;;;;;;1.85;0.90;;;;;;;;;;5026593;28;20108;-65
2021/10/14 05:51:27;;;;;;;1.83;0.98;;;;;;;;;;5026746;28;20034;-65
2021/10/14 05:53:52;;;;;;;1.45;0.90;;;;;;;;;;5023116;28;20025;-65
2021/10/14 05:56:17;;;;;;;1.33;0.80;;;;;;;;;;5038823;28;20029;-65
2021/10/14 05:58:43;;;;;;;1.40;0.80;;;;;;;;;;5044424;28;20052;-65
2021/10/14 06:01:08;;;;;;;1.80;0.90;;;;;;;;;;5025859;28;20100;-65
2021/10/14 06:03:37;;;;;;;1.70;0.80;;;;;;;;;;5028616;28;20030;-65
2021/10/14 06:06:02;;;;;;;1.15;0.80;;;;;;;;;;5027969;28;20030;-65
2021/10/14 06:08:28;;;;;;;0.90;0.70;;;;;;;;;;5023477;28;20025;-66
2021/10/14 06:10:53;;;;;;;1.20;0.90;;;;;;;;;;5024258;28;20056;-65
2021/10/14 06:13:20;;;;;;;1.20;0.73;;;;;;;;;;5024283;28;20101;-65
2021/10/14 06:15:46;;;;;;;3.42;0.88;;;;;;;;;;5019648;28;20021;-65
2021/10/14 06:18:11;;;;;;;2.83;0.80;;;;;;;;;;5015438;28;20041;-65
2021/10/14 06:20:37;;;;;;;2.40;0.82;;;;;;;;;;5020267;28;20026;-65
2021/10/14 06:23:02;;;;;;;1.73;0.70;;;;;;;;;;5016936;28;20036;-66
2021/10/14 06:25:28;;;;;;;3.25;0.93;;;;;;;;;;5019627;28;20046;-66
2021/10/14 06:27:54;;;;;;;1.88;0.85;;;;;;;;;;5025894;28;20030;-66
2021/10/14 06:30:19;;;;;;;3.80;1.00;;;;;;;;;;5021732;28;20385;-66
2021/10/14 06:32:45;;;;;;;1.77;0.90;;;;;;;;;;5023573;28;20108;-66
2021/10/14 06:35:11;;;;;;;1.85;0.80;;;;;;;;;;5022214;28;20026;-66
2021/10/14 06:37:36;;;;;;;0.93;0.65;;;;;;;;;;5026226;28;20025;-66
2021/10/14 06:40:02;;;;;;;2.90;0.82;;;;;;;;;;5024706;28;20072;-66
2021/10/14 06:42:28;;;;;;;0.70;0.50;;;;;;;;;;5021098;28;20504;-66
2021/10/14 06:44:53;;;;;;;0.73;0.60;;;;;;;;;;5024098;28;20022;-66
2021/10/14 06:47:19;;;;;;;0.50;0.40;;;;;;;;;;5020843;28;20025;-66
2021/10/14 06:49:48;;;;;;;1.98;0.75;;;;;;;;;;5024880;28;20026;-66
2021/10/14 06:52:14;;;;;;;0.80;0.60;;;;;;;;;;5023305;28;20034;-66
2021/10/14 06:54:39;;;;;;;0.60;0.50;;;;;;;;;;5025928;28;20076;-66
2021/10/14 06:57:07;;;;;;;1.58;0.63;;;;;;;;;;5025311;28;20473;-66
2021/10/14 06:59:33;;;;;;;1.30;0.60;;;;;;;;;;5017527;28;20033;-66
2021/10/14 07:01:58;;;;;;;0.40;0.38;;;;;;;;;;5023745;28;20457;-67
2021/10/14 07:04:24;;;;;;;0.93;0.77;;;;;;;;;;5019714;28;20060;-67
2021/10/14 07:06:50;;;;;;;1.17;0.60;;;;;;;;;;5052330;28;20037;-67
2021/10/14 07:09:15;;;;;;;1.50;0.60;;;;;;;;;;5024855;28;20024;-67
2021/10/14 07:11:51;;;;;;;1.20;0.52;;;;;;;;;;5026877;28;20073;-70
2021/10/14 07:14:17;;;;;;;0.80;0.40;;;;;;;;;;5013881;28;20128;-69
2021/10/14 07:16:43;;;;;;;1.70;0.60;;;;;;;;;;5026045;28;20109;-67
2021/10/14 07:19:08;;;;;;;2.58;0.75;;;;;;;;;;5021092;28;20038;-67
2021/10/14 07:21:34;;;;;;;1.70;0.70;;;;;;;;;;5023737;28;20026;-67
2021/10/14 07:23:59;;;;;;;0.88;0.60;;;;;;;;;;5022179;28;20160;-68
2021/10/14 07:26:25;;;;;;;1.10;0.77;;;;;;;;;;5016427;28;20066;-67
2021/10/14 07:28:50;;;;;;;0.77;0.60;;;;;;;;;;5027150;28;20790;-68
2021/10/14 07:31:16;;;;;;;2.60;0.70;;;;;;;;;;5020095;28;20478;-68
2021/10/14 07:33:41;;;;;;;2.03;0.80;;;;;;;;;;5025782;28;20609;-66
2021/10/14 07:36:08;;;;;;;0.70;0.70;;;;;;;;;;5019856;28;20030;-67
2021/10/14 07:38:33;;;;;;;1.55;0.73;;;;;;;;;;5019985;28;20049;-67
2021/10/14 07:40:59;;;;;;;2.85;0.90;;;;;;;;;;5024284;28;20060;-67
2021/10/14 07:43:24;;;;;;;2.08;0.63;;;;;;;;;;5028331;28;20059;-66
2021/10/14 07:45:50;;;;;;;1.98;0.70;;;;;;;;;;5027361;28;20458;-66
2021/10/14 07:48:16;;;;;;;3.95;1.10;;;;;;;;;;5017599;28;20163;-68
2021/10/14 07:50:42;;;;;;;1.20;0.80;;;;;;;;;;5021787;28;20037;-67
2021/10/14 07:53:16;;;;;;;2.38;0.90;;;;;;;;;;5030309;28;20033;-67
2021/10/14 07:55:42;;;;;;;4.45;0.82;;;;;;;;;;5025485;28;20044;-67
2021/10/14 07:58:08;;;;;;;1.92;0.70;;;;;;;;;;5030485;28;20454;-67
2021/10/14 08:00:34;;;;;;;2.08;0.60;;;;;;;;;;5025396;28;20124;-68
2021/10/14 08:02:59;;;;;;;2.15;0.80;;;;;;;;;;5022567;28;20426;-68
2021/10/14 08:05:25;;;;;;;0.85;0.70;;;;;;;;;;5030318;28;20025;-68
2021/10/14 08:07:50;;;;;;;2.55;0.95;;;;;;;;;;5030248;28;20025;-68
2021/10/14 08:10:16;;;;;;;3.58;0.70;;;;;;;;;;5037908;28;20358;-67
2021/10/14 08:12:43;;;;;;;2.25;0.90;;;;;;;;;;5031209;28;20442;-67
2021/10/14 08:15:09;;;;;;;4.18;1.00;;;;;;;;;;5011699;28;20061;-69
2021/10/14 08:17:35;;;;;;;1.83;0.70;;;;;;;;;;5031095;28;20477;-67
2021/10/14 08:20:00;;;;;;;3.50;0.90;;;;;;;;;;5031246;28;20029;-69
2021/10/14 08:22:26;;;;;;;1.92;0.80;;;;;;;;;;5031063;28;20160;-68
2021/10/14 08:24:52;;;;;;;2.40;0.90;;;;;;;;;;5026579;28;20041;-69
2021/10/14 08:27:19;;;;;;;1.67;0.73;;;;;;;;;;5026060;28;20060;-70
2021/10/14 08:29:44;;;;;;;2.28;0.70;;;;;;;;;;5026166;28;20037;-68
2021/10/14 08:32:10;;;;;;;4.57;1.25;;;;;;;;;;5029083;28;20366;-69
2021/10/14 08:34:35;;;;;;;2.90;0.73;;;;;;;;;;5029276;28;20040;-68
2021/10/14 08:37:01;;;;;;;2.83;0.80;;;;;;;;;;5030832;28;20025;-66
2021/10/14 08:39:26;;;;;;;3.28;1.13;;;;;;;;;;5024893;28;20026;-67
2021/10/14 08:41:52;;;;;;;3.08;0.80;;;;;;;;;;5020061;28;20072;-67
2021/10/14 08:44:26;;;;;;;4.07;0.77;;;;;;;;;;5027793;28;20045;-67
2021/10/14 08:46:55;;;;;;;;;;;;;;;;;;5023104;28;20049;-67
2021/10/14 08:49:22;;;;;;;2.65;0.70;;;;;;;;;;5022819;28;19921;-67
2021/10/14 08:51:48;;;;;;;4.90;0.90;;;;;;;;;;5034301;28;20421;-67
2021/10/14 08:54:13;;;;;;;4.68;0.63;;;;;;;;;;5032603;28;20035;-68
2021/10/14 08:56:44;;;;;;;3.92;0.75;;;;;;;;;;5035045;28;20029;-68
2021/10/14 08:59:12;;;;;;;3.88;1.00;;;;;;;;;;5036048;28;20119;-69
2021/10/14 09:01:40;;;;;;;5.60;0.85;;;;;;;;;;5034564;28;20056;-68
2021/10/14 09:04:15;;;;;;;6.18;1.75;;;;;;;;;;5040913;28;20025;-67
2021/10/14 09:06:40;;;;;;;4.30;0.73;;;;;;;;;;5034325;28;20021;-66
2021/10/14 09:09:07;;;;;;;4.82;0.80;;;;;;;;;;5033301;28;20043;-66
2021/10/14 09:11:33;;;;;;;4.25;0.80;;;;;;;;;;5034773;28;20048;-67
2021/10/14 09:14:04;;;;;;;4.40;0.80;;;;;;;;;;5025652;28;20033;-67
2021/10/14 09:16:34;;;;;;;1.90;0.85;;;;;;;;;;5022748;28;20469;-67
2021/10/14 09:19:30;;;;;;;2.45;0.90;;;;;;;;;;5030190;28;20084;-67
2021/10/14 09:22:01;;;;;;;5.20;0.90;;;;;;;;;;5021518;28;20092;-67
2021/10/14 09:24:31;;;;;;;3.10;0.88;;;;;;;;;;5030533;28;20029;-67
2021/10/14 09:26:59;;;;;;;4.38;1.08;;;;;;;;;;5027860;28;20454;-67
2021/10/14 09:29:27;;;;;;;3.40;0.80;;;;;;;;;;5028853;28;20067;-66
2021/10/14 09:31:52;;;;;;;2.10;0.90;;;;;;;;;;5031999;28;20061;-68
2021/10/14 09:34:34;;;;;;;3.33;0.98;;;;;;;;;;5024513;28;20065;-67
2021/10/14 09:37:25;;;;;;;3.88;0.80;;;;;;;;;;5023442;28;20029;-67
2021/10/14 09:40:12;;;;;;;1.83;0.90;;;;;;;;;;5030831;28;20045;-68
2021/10/14 09:42:55;;;;;;;2.88;1.10;;;;;;;;;;5032257;28;20029;-68
2021/10/14 09:45:30;;;;;;;2.78;0.75;;;;;;;;;;5026644;28;20029;-68
2021/10/14 09:48:05;;;;;;;2.67;0.98;;;;;;;;;;5029373;28;20025;-67
2021/10/14 09:50:37;;;;;;;4.22;0.95;;;;;;;;;;5027322;28;20025;-67
2021/10/14 09:53:05;;;;;;;2.72;1.05;;;;;;;;;;5018691;28;20466;-67
2021/10/14 09:55:31;;;;;;;5.43;1.30;;;;;;;;;;5030494;28;20037;-67
2021/10/14 09:57:57;;;;;;;3.20;1.10;;;;;;;;;;5030419;28;20021;-67
2021/10/14 10:00:23;;;;;;;2.65;1.00;;;;;;;;;;5031248;28;20049;-67
2021/10/14 10:02:52;;;;;;;2.30;1.00;;;;;;;;;;5028600;28;20040;-68
2021/10/14 10:05:18;;;;;;;3.58;1.00;;;;;;;;;;5030976;28;20034;-69
2021/10/14 10:07:46;;;;;;;2.63;0.98;;;;;;;;;;5029690;28;20033;-67
2021/10/14 10:10:16;;;;;;;3.70;1.20;;;;;;;;;;5033640;28;20512;-68
2021/10/14 10:12:42;;;;;;;4.18;1.20;;;;;;;;;;5032293;28;20047;-67
2021/10/14 10:15:09;;;;;;;2.17;1.10;;;;;;;;;;5030180;28;20054;-67
2021/10/14 10:17:40;;;;;;;4.53;1.23;;;;;;;;;;5018897;28;20034;-66
2021/10/14 10:20:07;;;;;;;3.08;0.93;;;;;;;;;;5028304;28;20083;-66
2021/10/14 10:22:33;;;;;;;4.25;1.02;;;;;;;;;;5026002;28;20029;-65
2021/10/14 10:25:25;;;;;;;1.85;0.90;;;;;;;;;;5029883;28;20036;-66
2021/10/14 10:27:55;;;;;;;1.65;0.90;;;;;;;;;;5028780;28;20454;-65
2021/10/14 10:30:38;;;;;;;2.40;1.08;;;;;;;;;;5025861;28;20541;-67
2021/10/14 10:33:06;;;;;;;3.60;1.00;;;;;;;;;;5022600;28;20563;-67
2021/10/14 10:35:38;;;;;;;4.03;1.15;;;;;;;;;;5028783;28;20413;-66
2021/10/14 10:38:26;;;;;;;5.05;1.20;;;;;;;;;;5031265;28;20087;-67
2021/10/14 10:40:55;;;;;;;4.53;1.42;;;;;;;;;;5026347;28;20509;-67
2021/10/14 10:43:29;;;;;;;4.20;1.00;;;;;;;;;;5031849;28;20025;-67
2021/10/14 10:45:56;;;;;;;;;;;;;;;;;;5031077;28;20026;-67
2021/10/14 10:48:43;;;;;;;3.97;1.00;;;;;;;;;;5031466;28;20286;-67
2021/10/14 10:51:26;;;;;;;3.97;0.93;;;;;;;;;;5021383;28;20033;-66
2021/10/14 10:53:52;;;;;;;1.77;0.80;;;;;;;;;;5030953;28;20138;-67
2021/10/14 10:56:33;;;;;;;5.97;1.10;;;;;;;;;;5037666;28;20029;-66
2021/10/14 10:58:59;;;;;;;2.35;0.85;;;;;;;;;;5033806;28;20068;-67
2021/10/14 11:01:25;;;;;;;3.83;0.90;;;;;;;;;;5017612;28;20524;-67
2021/10/14 11:03:51;;;;;;;2.47;1.00;;;;;;;;;;5030371;28;20535;-66
2021/10/14 11:06:16;;;;;;;2.08;1.00;;;;;;;;;;5027633;28;20021;-66
2021/10/14 11:08:42;;;;;;;3.55;1.30;;;;;;;;;;5013014;28;20033;-66
2021/10/14 11:11:13;;;;;;;1.63;0.80;;;;;;;;;;5016741;28;20030;-67
2021/10/14 11:13:41;;;;;;;6.18;1.00;;;;;;;;;;5026791;28;20029;-66
2021/10/14 11:16:10;;;;;;;3.10;1.20;;;;;;;;;;5030393;28;20025;-73
2021/10/14 11:18:38;;;;;;;2.25;0.95;;;;;;;;;;5030421;28;20033;-74
2021/10/14 11:21:04;;;;;;;2.72;1.08;;;;;;;;;;5030500;28;20469;-74
2021/10/14 11:23:42;;;;;;;3.20;1.10;;;;;;;;;;5028362;28;20448;-73
2021/10/14 11:26:17;;;;;;;2.30;1.00;;;;;;;;;;5029476;28;20104;-73
2021/10/14 11:29:03;;;;;;;5.55;1.38;;;;;;;;;;5023695;28;20028;-73
2021/10/14 11:31:50;;;;;;;3.97;0.90;;;;;;;;;;5030316;28;20048;-73
2021/10/14 11:34:17;;;;;;;3.75;0.95;;;;;;;;;;5043108;28;20039;-73
2021/10/14 11:36:52;;;;;;;2.55;1.00;;;;;;;;;;5031578;28;20033;-73
2021/10/14 11:39:19;;;;;;;3.60;0.95;;;;;;;;;;5031479;28;20532;-73
2021/10/14 11:41:53;;;;;;;4.00;1.20;;;;;;;;;;5031143;28;20390;-73
2021/10/14 11:44:18;;;;;;;3.90;1.00;;;;;;;;;;5031280;28;20380;-73
2021/10/14 11:46:45;;;;;;;5.00;1.05;;;;;;;;;;5030698;28;20025;-74
2021/10/14 11:49:11;;;;;;;3.17;0.98;;;;;;;;;;5031409;28;20378;-73
2021/10/14 11:51:38;;;;;;;2.00;0.70;;;;;;;;;;5031168;28;20028;-73
2021/10/14 11:54:16;;;;;;;3.45;1.10;;;;;;;;;;5032220;28;20033;-73
2021/10/14 11:56:49;;;;;;;3.70;1.00;;;;;;;;;;5035786;28;20315;-73
2021/10/14 11:59:17;;;;;;;2.58;0.90;;;;;;;;;;5031051;28;20513;-73
2021/10/14 12:02:06;;;;;;;3.70;0.90;;;;;;;;;;5046217;28;20044;-72
2021/10/14 12:04:47;;;;;;;3.88;1.05;;;;;;;;;;5031024;28;20056;-74
2021/10/14 12:07:24;;;;;;;1.80;0.90;;;;;;;;;;5031058;28;20022;-73
2021/10/14 12:09:50;;;;;;;3.60;1.00;;;;;;;;;;5031022;28;20408;-73
2021/10/14 12:12:18;;;;;;;5.78;1.13;;;;;;;;;;5031350;28;20030;-73
2021/10/14 12:14:43;;;;;;;2.78;0.70;;;;;;;;;;5030455;28;20025;-73
2021/10/14 12:17:09;;;;;;;5.35;0.95;;;;;;;;;;5030988;28;20060;-73
2021/10/14 12:19:39;;;;;;;2.58;0.95;;;;;;;;;;5030968;28;20036;-73
2021/10/14 12:22:06;;;;;;;2.63;0.70;;;;;;;;;;5030836;28;20099;-73
2021/10/14 12:24:37;;;;;;;1.95;0.80;;;;;;;;;;5030649;28;20482;-75
2021/10/14 12:27:03;;;;;;;2.92;0.70;;;;;;;;;;5030106;28;20112;-73
2021/10/14 12:29:33;;;;;;;2.28;0.80;;;;;;;;;;5030618;28;20569;-74
2021/10/14 12:32:07;;;;;;;2.90;0.70;;;;;;;;;;5030686;28;20021;-73
2021/10/14 12:34:53;;;;;;;3.08;1.33;;;;;;;;;;5044911;28;20029;-74
2021/10/14 12:37:26;;;;;;;1.48;0.50;;;;;;;;;;5049345;28;20032;-74
2021/10/14 12:40:24;;;;;;;1.85;0.80;;;;;;;;;;5050386;28;20075;-74
2021/10/14 12:43:04;;;;;;;3.67;0.70;;;;;;;;;;5034352;28;20056;-73
2021/10/14 12:48:12;;;;;;;3.45;0.70;;;;;;;;;;5030179;28;20030;-74
2021/10/14 12:51:40;;;;;;;1.85;0.65;;;;;;;;;;5030412;28;20419;-75
2021/10/14 12:53:40;;;;;;;0.40;0.40;;;;;;;;;;5036521;28;20133;-75
2021/10/14 12:56:07;;;;;;;5.78;0.80;;;;;;;;;;5039006;28;20488;-73
2021/10/14 12:58:33;;;;;;;1.40;0.63;;;;;;;;;;5045255;28;20087;-75
2021/10/14 13:01:04;;;;;;;2.85;0.70;;;;;;;;;;5029681;28;20050;-76
2021/10/14 13:03:30;;;;;;;4.43;0.85;;;;;;;;;;5010721;28;20034;-75
2021/10/14 13:05:56;;;;;;;3.55;0.80;;;;;;;;;;5010503;28;20515;-76
2021/10/14 13:08:23;;;;;;;2.58;0.70;;;;;;;;;;5027005;28;20029;-76
2021/10/14 13:10:48;;;;;;;3.03;0.82;;;;;;;;;;5030110;28;20567;-77
2021/10/14 13:13:14;;;;;;;1.27;0.60;;;;;;;;;;5030343;28;20057;-76
2021/10/14 13:15:40;;;;;;;2.38;0.55;;;;;;;;;;5030327;28;20412;-73
2021/10/14 13:18:06;;;;;;;1.25;0.60;;;;;;;;;;5030455;28;20091;-73
2021/10/14 13:20:33;;;;;;;4.63;0.88;;;;;;;;;;5030303;28;20112;-73
2021/10/14 13:22:59;;;;;;;2.63;0.93;;;;;;;;;;5030103;28;20336;-73
2021/10/14 13:25:25;;;;;;;1.27;0.63;;;;;;;;;;5030660;28;20512;-73
2021/10/14 13:27:50;;;;;;;1.77;0.70;;;;;;;;;;5030089;28;20345;-73
2021/10/14 13:30:16;;;;;;;2.97;0.60;;;;;;;;;;5030078;28;20025;-72
2021/10/14 13:32:42;;;;;;;4.75;0.80;;;;;;;;;;5029996;28;20033;-72
2021/10/14 13:35:08;;;;;;;2.35;0.80;;;;;;;;;;5043978;28;20020;-73
2021/10/14 13:37:34;;;;;;;2.20;0.68;;;;;;;;;;5030121;28;20033;-74
2021/10/14 13:40:01;;;;;;;3.50;1.27;;;;;;;;;;5032664;28;20425;-72
2021/10/14 13:42:31;;;;;;;2.83;0.70;;;;;;;;;;5033404;28;20539;-71
2021/10/14 13:44:56;;;;;;;2.33;0.93;;;;;;;;;;5033455;28;20135;-71
2021/10/14 13:47:22;;;;;;;1.77;0.80;;;;;;;;;;5033723;28;20459;-73
2021/10/14 13:49:48;;;;;;;2.50;1.08;;;;;;;;;;5033779;28;20473;-72
2021/10/14 13:52:14;;;;;;;1.27;0.80;;;;;;;;;;5033390;28;20328;-71
2021/10/14 13:54:39;;;;;;;2.28;1.00;;;;;;;;;;5033485;28;20121;-73
2021/10/14 13:57:05;;;;;;;2.80;1.02;;;;;;;;;;5035069;28;20359;-71
2021/10/14 13:59:30;;;;;;;4.63;0.98;;;;;;;;;;5033147;28;20164;-72
2021/10/14 14:01:56;;;;;;;1.27;1.00;;;;;;;;;;5033106;28;20462;-71
2021/10/14 14:04:22;;;;;;;4.82;1.20;;;;;;;;;;5033376;28;20343;-71
2021/10/14 14:06:47;;;;;;;3.35;1.30;;;;;;;;;;5032045;28;20079;-71
2021/10/14 14:09:12;;;;;;;3.55;1.35;;;;;;;;;;5033342;28;20021;-72
2021/10/14 14:11:41;;;;;;;4.22;1.30;;;;;;;;;;5032474;28;20036;-72
2021/10/14 14:14:10;;;;;;;2.95;1.45;;;;;;;;;;5032887;28;20453;-72
2021/10/14 14:16:36;;;;;;;4.47;1.50;;;;;;;;;;5033193;28;20401;-70
2021/10/14 14:19:02;;;;;;;3.78;1.50;;;;;;;;;;5033544;28;20034;-69
2021/10/14 14:21:29;;;;;;;2.78;1.30;;;;;;;;;;5033835;28;20044;-70
2021/10/14 14:23:58;;;;;;;2.70;1.73;;;;;;;;;;5028924;28;20115;-70
2021/10/14 14:26:24;;;;;;;5.75;1.40;;;;;;;;;;5016147;28;20041;-70
2021/10/14 14:28:49;;;;;;;3.97;1.15;;;;;;;;;;5033271;28;20060;-69
2021/10/14 14:31:15;;;;;;;9.32;1.20;;;;;;;;;;5033738;28;20022;-69
2021/10/14 14:33:40;;;;;;;1.08;0.90;;;;;;;;;;5040075;28;20032;-69
2021/10/14 14:36:06;;;;;;;2.17;0.90;;;;;;;;;;5032604;28;20052;-69
2021/10/14 14:38:31;;;;;;;4.97;1.20;;;;;;;;;;5033433;28;20053;-69
2021/10/14 14:40:57;;;;;;;1.98;0.80;;;;;;;;;;5033276;28;20461;-69
2021/10/14 14:43:22;;;;;;;2.53;0.60;;;;;;;;;;5033348;28;20025;-69
2021/10/14 14:45:49;;;;;;;2.63;0.60;;;;;;;;;;5033267;28;20108;-69
2021/10/14 14:48:14;;;;;;;0.82;0.70;;;;;;;;;;5033098;28;20435;-68